Time,TemperatureF,DewpointF,PressureIn,WindDirection,WindDirectionDegrees,WindSpeedMPH,WindSpeedGustMPH,Humidity,HourlyPrecipIn,Conditions,Clouds,dailyrainin,SoftwareType,DateUTC
2013-07-16 00:02:00,67.6,67.0,30.14,WNW,292,0.0,-999.0,98,-99.99,,,0.00,Acu-Link.com,2013-07-16 04:02:00,
2013-07-16 00:17:00,67.6,67.0,30.14,NW,315,0.0,-999.0,98,-99.99,,,0.00,Acu-Link.com,2013-07-16 04:17:00,
2013-07-16 00:32:00,67.6,67.0,30.15,NE,45,0.0,-999.0,98,-99.99,,,0.00,Acu-Link.com,2013-07-16 04:32:00,
2013-07-16 00:47:00,67.6,67.0,30.14,ENE,67,0.0,-999.0,98,-99.99,,,0.00,Acu-Link.com,2013-07-16 04:47:00,
2013-07-16 01:03:00,67.3,66.7,30.14,NNW,337,0.0,-999.0,98,-99.99,,,0.00,Acu-Link.com,2013-07-16 05:03:00,
2013-07-16 01:18:00,67.1,66.5,30.15,NNW,337,0.0,-999.0,98,-99.99,,,0.00,Acu-Link.com,2013-07-16 05:18:00,
2013-07-16 01:33:00,67.5,66.9,30.14,SSE,157,0.0,-999.0,98,-99.99,,,0.00,Acu-Link.com,2013-07-16 05:33:00,
2013-07-16 01:48:00,67.5,66.9,30.14,ESE,112,0.0,-999.0,98,-99.99,,,0.00,Acu-Link.com,2013-07-16 05:48:00,
2013-07-16 02:04:00,67.5,66.9,30.14,NNE,22,0.0,-999.0,98,-99.99,,,0.00,Acu-Link.com,2013-07-16 06:04:00,
2013-07-16 02:19:00,67.6,67.0,30.14,SE,135,0.0,-999.0,98,-99.99,,,0.00,Acu-Link.com,2013-07-16 06:19:00,
2013-07-16 02:34:00,67.6,67.0,30.14,ENE,67,0.0,-999.0,98,-99.99,,,0.00,Acu-Link.com,2013-07-16 06:34:00,
2013-07-16 02:49:00,67.6,67.0,30.14,SSE,157,0.0,-999.0,98,-99.99,,,0.00,Acu-Link.com,2013-07-16 06:49:00,
2013-07-16 03:04:00,67.8,67.2,30.14,SE,135,0.0,-999.0,98,-99.99,,,0.00,Acu-Link.com,2013-07-16 07:04:00,
2013-07-16 03:20:00,67.8,67.2,30.14,ESE,112,0.0,-999.0,98,-99.99,,,0.00,Acu-Link.com,2013-07-16 07:20:00,
2013-07-16 03:35:00,67.6,67.0,30.14,ESE,112,0.0,-999.0,98,-99.99,,,0.00,Acu-Link.com,2013-07-16 07:35:00,
2013-07-16 03:50:00,67.3,66.7,30.13,SSE,157,0.0,-999.0,98,-99.99,,,0.00,Acu-Link.com,2013-07-16 07:50:00,
2013-07-16 04:06:00,66.9,66.3,30.13,SE,135,0.0,-999.0,98,-99.99,,,0.00,Acu-Link.com,2013-07-16 08:06:00,
2013-07-16 04:21:00,66.6,66.0,30.13,ENE,67,0.0,-999.0,98,-99.99,,,0.00,Acu-Link.com,2013-07-16 08:21:00,
2013-07-16 04:36:00,66.2,65.6,30.13,ENE,67,0.0,-999.0,98,-99.99,,,0.00,Acu-Link.com,2013-07-16 08:36:00,
2013-07-16 04:51:00,66.0,65.4,30.13,ENE,67,0.0,-999.0,98,-99.99,,,0.00,Acu-Link.com,2013-07-16 08:51:00,
2013-07-16 05:06:00,65.5,64.9,30.13,SSE,157,0.0,-999.0,98,-99.99,,,0.00,Acu-Link.com,2013-07-16 09:06:00,
2013-07-16 05:21:00,65.5,64.9,30.13,East,90,0.0,-999.0,98,-99.99,,,0.00,Acu-Link.com,2013-07-16 09:21:00,
2013-07-16 05:36:00,65.1,64.5,30.13,South,180,0.0,-999.0,98,-99.99,,,0.00,Acu-Link.com,2013-07-16 09:36:00,
2013-07-16 05:52:00,64.8,64.2,30.13,South,180,0.0,-999.0,98,-99.99,,,0.00,Acu-Link.com,2013-07-16 09:52:00,
2013-07-16 06:07:00,64.8,64.2,30.14,ENE,67,0.0,-999.0,98,-99.99,,,0.00,Acu-Link.com,2013-07-16 10:07:00,
2013-07-16 06:22:00,64.8,64.2,30.13,ESE,112,0.0,-999.0,98,-99.99,,,0.00,Acu-Link.com,2013-07-16 10:22:00,
2013-07-16 06:37:00,64.9,64.3,30.14,ESE,112,0.0,-999.0,98,-99.99,,,0.00,Acu-Link.com,2013-07-16 10:37:00,
2013-07-16 06:52:00,65.1,64.5,30.14,NE,45,0.0,-999.0,98,-99.99,,,0.00,Acu-Link.com,2013-07-16 10:52:00,
2013-07-16 07:08:00,65.5,64.9,30.14,East,90,0.0,-999.0,98,-99.99,,,0.00,Acu-Link.com,2013-07-16 11:08:00,
2013-07-16 07:23:00,65.7,65.1,30.14,ESE,112,0.0,-999.0,98,-99.99,,,0.00,Acu-Link.com,2013-07-16 11:23:00,
2013-07-16 07:38:00,66.2,65.6,30.15,ENE,67,0.0,-999.0,98,-99.99,,,0.00,Acu-Link.com,2013-07-16 11:38:00,
2013-07-16 07:53:00,67.5,66.9,30.15,NE,45,0.0,-999.0,98,-99.99,,,0.00,Acu-Link.com,2013-07-16 11:53:00,
2013-07-16 08:08:00,68.4,67.8,30.15,NNE,22,0.0,-999.0,98,-99.99,,,0.00,Acu-Link.com,2013-07-16 12:08:00,
2013-07-16 08:26:00,70.0,69.4,30.16,WSW,247,0.0,-999.0,98,-99.99,,,0.00,Acu-Link.com,2013-07-16 12:26:00,
2013-07-16 08:41:00,70.9,70.3,30.16,NNE,22,0.0,-999.0,98,-99.99,,,0.00,Acu-Link.com,2013-07-16 12:41:00,
2013-07-16 08:56:00,73.8,73.2,30.16,WSW,247,0.0,-999.0,98,-99.99,,,0.00,Acu-Link.com,2013-07-16 12:56:00,
2013-07-16 09:11:00,77.0,76.4,30.17,SE,135,0.0,-999.0,98,-99.99,,,0.00,Acu-Link.com,2013-07-16 13:11:00,
2013-07-16 09:27:00,80.8,80.2,30.16,SE,135,2.7,-999.0,98,-99.99,,,0.00,Acu-Link.com,2013-07-16 13:27:00,
2013-07-16 09:42:00,82.8,82.2,30.16,SE,135,2.7,-999.0,98,-99.99,,,0.00,Acu-Link.com,2013-07-16 13:42:00,
2013-07-16 09:57:00,86.4,85.8,30.16,SE,135,1.1,-999.0,98,-99.99,,,0.00,Acu-Link.com,2013-07-16 13:57:00,
2013-07-16 10:12:00,85.1,84.5,30.16,NE,45,3.7,-999.0,98,-99.99,,,0.00,Acu-Link.com,2013-07-16 14:12:00,
2013-07-16 10:28:00,83.5,82.9,30.15,SSE,157,1.7,-999.0,98,-99.99,,,0.00,Acu-Link.com,2013-07-16 14:28:00,
2013-07-16 10:43:00,82.6,82.0,30.15,NE,45,1.7,-999.0,98,-99.99,,,0.00,Acu-Link.com,2013-07-16 14:43:00,
2013-07-16 10:58:00,85.8,85.2,30.15,East,90,1.1,-999.0,98,-99.99,,,0.00,Acu-Link.com,2013-07-16 14:58:00,
2013-07-16 11:13:00,84.2,83.6,30.14,East,90,1.7,-999.0,98,-99.99,,,0.00,Acu-Link.com,2013-07-16 15:13:00,
2013-07-16 11:28:00,86.7,86.1,30.15,East,90,2.7,-999.0,98,-99.99,,,0.00,Acu-Link.com,2013-07-16 15:28:00,
2013-07-16 11:44:00,84.4,83.8,30.14,SE,135,0.0,-999.0,98,-99.99,,,0.00,Acu-Link.com,2013-07-16 15:44:00,
2013-07-16 11:59:00,83.1,82.5,30.14,ESE,112,1.7,-999.0,98,-99.99,,,0.00,Acu-Link.com,2013-07-16 15:59:00,
2013-07-16 12:14:00,86.7,86.1,30.14,SSE,157,0.0,-999.0,98,-99.99,,,0.00,Acu-Link.com,2013-07-16 16:14:00,
2013-07-16 12:29:00,86.9,86.3,30.14,NE,45,1.1,-999.0,98,-99.99,,,0.00,Acu-Link.com,2013-07-16 16:29:00,
2013-07-16 12:44:00,87.6,87.0,30.14,ESE,112,2.2,-999.0,98,-99.99,,,0.00,Acu-Link.com,2013-07-16 16:44:00,
2013-07-16 13:00:00,88.7,88.1,30.13,ESE,112,0.0,-999.0,98,-99.99,,,0.00,Acu-Link.com,2013-07-16 17:00:00,
2013-07-16 13:15:00,88.0,87.4,30.13,SSE,157,3.7,-999.0,98,-99.99,,,0.00,Acu-Link.com,2013-07-16 17:15:00,
2013-07-16 13:30:00,86.9,86.3,30.12,SE,135,2.2,-999.0,98,-99.99,,,0.00,Acu-Link.com,2013-07-16 17:30:00,
2013-07-16 13:45:00,87.8,87.2,30.12,NNE,22,2.2,-999.0,98,-99.99,,,0.00,Acu-Link.com,2013-07-16 17:45:00,
2013-07-16 14:00:00,89.2,87.2,30.11,WSW,247,1.7,-999.0,94,-99.99,,,0.00,Acu-Link.com,2013-07-16 18:00:00,
2013-07-16 14:16:00,89.1,87.5,30.11,NNE,22,1.7,-999.0,95,-99.99,,,0.00,Acu-Link.com,2013-07-16 18:16:00,
2013-07-16 14:31:00,90.0,88.0,30.11,WNW,292,3.2,-999.0,94,-99.99,,,0.00,Acu-Link.com,2013-07-16 18:31:00,
2013-07-16 14:46:00,87.6,86.3,30.10,NNE,22,1.7,-999.0,96,-99.99,,,0.00,Acu-Link.com,2013-07-16 18:46:00,
2013-07-16 15:01:00,90.1,87.8,30.10,North,0,0.0,-999.0,93,-99.99,,,0.00,Acu-Link.com,2013-07-16 19:01:00,
2013-07-16 15:16:00,88.7,86.1,30.10,SW,225,1.1,-999.0,92,-99.99,,,0.00,Acu-Link.com,2013-07-16 19:16:00,
2013-07-16 15:32:00,85.6,85.0,30.10,SSW,202,2.7,-999.0,98,-99.99,,,0.00,Acu-Link.com,2013-07-16 19:32:00,
2013-07-16 15:47:00,88.9,88.3,30.10,NE,45,4.2,-999.0,98,-99.99,,,0.00,Acu-Link.com,2013-07-16 19:47:00,
2013-07-16 16:02:00,88.0,85.7,30.09,NW,315,2.7,-999.0,93,-99.99,,,0.00,Acu-Link.com,2013-07-16 20:02:00,
2013-07-16 16:17:00,87.4,85.5,30.09,SW,225,2.2,-999.0,94,-99.99,,,0.00,Acu-Link.com,2013-07-16 20:17:00,
2013-07-16 16:33:00,88.7,87.7,30.09,WSW,247,1.7,-999.0,97,-99.99,,,0.00,Acu-Link.com,2013-07-16 20:33:00,
2013-07-16 16:48:00,88.3,86.7,30.09,NNE,22,2.7,-999.0,95,-99.99,,,0.00,Acu-Link.com,2013-07-16 20:48:00,
2013-07-16 17:03:00,87.8,86.8,30.08,South,180,1.1,-999.0,97,-99.99,,,0.00,Acu-Link.com,2013-07-16 21:03:00,
2013-07-16 17:18:00,90.3,89.7,30.08,ESE,112,1.7,-999.0,98,-99.99,,,0.00,Acu-Link.com,2013-07-16 21:18:00,
2013-07-16 17:34:00,87.1,85.8,30.08,ENE,67,2.2,-999.0,96,-99.99,,,0.00,Acu-Link.com,2013-07-16 21:34:00,
2013-07-16 17:49:00,86.0,85.0,30.08,West,270,2.2,-999.0,97,-99.99,,,0.00,Acu-Link.com,2013-07-16 21:49:00,
2013-07-16 18:04:00,88.7,87.1,30.08,NE,45,0.0,-999.0,95,-99.99,,,0.00,Acu-Link.com,2013-07-16 22:04:00,
2013-07-16 18:20:00,88.2,87.6,30.07,ESE,112,0.0,-999.0,98,-99.99,,,0.00,Acu-Link.com,2013-07-16 22:20:00,
2013-07-16 18:35:00,86.4,85.8,30.08,ENE,67,0.0,-999.0,98,-99.99,,,0.00,Acu-Link.com,2013-07-16 22:35:00,
2013-07-16 18:50:00,84.4,83.8,30.07,ESE,112,0.0,-999.0,98,-99.99,,,0.00,Acu-Link.com,2013-07-16 22:50:00,
2013-07-16 19:05:00,82.9,82.3,30.07,ESE,112,0.0,-999.0,98,-99.99,,,0.00,Acu-Link.com,2013-07-16 23:05:00,
2013-07-16 19:20:00,80.6,80.0,30.07,East,90,0.0,-999.0,98,-99.99,,,0.00,Acu-Link.com,2013-07-16 23:20:00,
2013-07-16 19:36:00,79.7,79.1,30.08,ESE,112,0.0,-999.0,98,-99.99,,,0.00,Acu-Link.com,2013-07-16 23:36:00,
2013-07-16 19:51:00,79.0,78.4,30.08,ENE,67,0.0,-999.0,98,-99.99,,,0.00,Acu-Link.com,2013-07-16 23:51:00,
2013-07-16 20:06:00,77.7,77.1,30.08,ESE,112,0.0,-999.0,98,-99.99,,,0.00,Acu-Link.com,2013-07-17 00:06:00,
2013-07-16 20:21:00,76.5,75.9,30.09,ESE,112,0.0,-999.0,98,-99.99,,,0.00,Acu-Link.com,2013-07-17 00:21:00,
2013-07-16 20:36:00,75.7,75.1,30.09,ESE,112,0.0,-999.0,98,-99.99,,,0.00,Acu-Link.com,2013-07-17 00:36:00,
2013-07-16 20:52:00,74.8,74.2,30.09,ESE,112,0.0,-999.0,98,-99.99,,,0.00,Acu-Link.com,2013-07-17 00:52:00,
2013-07-16 21:07:00,73.6,73.0,30.09,ENE,67,0.0,-999.0,98,-99.99,,,0.00,Acu-Link.com,2013-07-17 01:07:00,
2013-07-16 21:22:00,72.9,72.3,30.09,SSW,202,0.0,-999.0,98,-99.99,,,0.00,Acu-Link.com,2013-07-17 01:22:00,
2013-07-16 21:37:00,72.1,71.5,30.10,ENE,67,0.0,-999.0,98,-99.99,,,0.00,Acu-Link.com,2013-07-17 01:37:00,
2013-07-16 21:52:00,71.8,71.2,30.11,WNW,292,0.0,-999.0,98,-99.99,,,0.00,Acu-Link.com,2013-07-17 01:52:00,
2013-07-16 22:07:00,70.9,70.3,30.11,ESE,112,0.0,-999.0,98,-99.99,,,0.00,Acu-Link.com,2013-07-17 02:07:00,
2013-07-16 22:23:00,70.5,69.9,30.12,SW,225,0.0,-999.0,98,-99.99,,,0.00,Acu-Link.com,2013-07-17 02:23:00,
2013-07-16 22:38:00,70.3,69.7,30.11,NE,45,0.0,-999.0,98,-99.99,,,0.00,Acu-Link.com,2013-07-17 02:38:00,
2013-07-16 22:53:00,70.0,69.4,30.10,SSW,202,0.0,-999.0,98,-99.99,,,0.00,Acu-Link.com,2013-07-17 02:53:00,
2013-07-16 23:08:00,69.6,69.0,30.10,NE,45,0.0,-999.0,98,-99.99,,,0.00,Acu-Link.com,2013-07-17 03:08:00,
2013-07-16 23:23:00,69.1,68.5,30.10,NE,45,0.0,-999.0,98,-99.99,,,0.00,Acu-Link.com,2013-07-17 03:23:00,
2013-07-16 23:39:00,68.7,68.1,30.10,SSE,157,0.0,-999.0,98,-99.99,,,0.00,Acu-Link.com,2013-07-17 03:39:00,
2013-07-16 23:54:00,68.5,67.9,30.11,SE,135,0.0,-999.0,98,-99.99,,,0.00,Acu-Link.com,2013-07-17 03:54:00,